sensor_id;sensor_type;location;lat;lon;timestamp;temperature;humidity
36372;DHT22;22398;51.346;12.372;2023-03-12T00:03:28;-0.90;99.90
36372;DHT22;22398;51.346;12.372;2023-03-12T00:08:32;-0.90;99.90
36372;DHT22;22398;51.346;12.372;2023-03-12T00:13:37;-0.90;99.90
36372;DHT22;22398;51.346;12.372;2023-03-12T00:18:41;-0.80;99.90
36372;DHT22;22398;51.346;12.372;2023-03-12T00:23:45;-0.80;99.90
36372;DHT22;22398;51.346;12.372;2023-03-12T00:28:50;-0.80;99.90
36372;DHT22;22398;51.346;12.372;2023-03-12T00:33:55;-0.80;99.90
36372;DHT22;22398;51.346;12.372;2023-03-12T00:39:00;-0.90;99.90
36372;DHT22;22398;51.346;12.372;2023-03-12T00:44:05;-0.90;99.90
36372;DHT22;22398;51.346;12.372;2023-03-12T00:49:08;-1.00;99.90
36372;DHT22;22398;51.346;12.372;2023-03-12T00:54:13;-1.00;99.90
36372;DHT22;22398;51.346;12.372;2023-03-12T00:59:18;-0.90;99.90
36372;DHT22;22398;51.346;12.372;2023-03-12T01:04:22;-0.80;99.90
36372;DHT22;22398;51.346;12.372;2023-03-12T01:09:26;-0.90;99.90
36372;DHT22;22398;51.346;12.372;2023-03-12T01:14:30;-0.90;99.90
36372;DHT22;22398;51.346;12.372;2023-03-12T01:19:34;-0.90;99.90
36372;DHT22;22398;51.346;12.372;2023-03-12T01:24:38;-0.90;99.90
36372;DHT22;22398;51.346;12.372;2023-03-12T01:29:42;-1.00;99.90
36372;DHT22;22398;51.346;12.372;2023-03-12T01:34:46;-1.00;99.90
36372;DHT22;22398;51.346;12.372;2023-03-12T01:39:49;-1.00;99.90
36372;DHT22;22398;51.346;12.372;2023-03-12T01:44:56;-1.00;99.90
36372;DHT22;22398;51.346;12.372;2023-03-12T01:50:02;-1.10;99.90
36372;DHT22;22398;51.346;12.372;2023-03-12T01:55:08;-1.00;99.90
36372;DHT22;22398;51.346;12.372;2023-03-12T02:00:19;-0.90;99.90
36372;DHT22;22398;51.346;12.372;2023-03-12T02:05:27;-1.00;99.90
36372;DHT22;22398;51.346;12.372;2023-03-12T02:10:32;-1.00;99.90
36372;DHT22;22398;51.346;12.372;2023-03-12T02:15:38;-1.00;99.90
36372;DHT22;22398;51.346;12.372;2023-03-12T02:20:48;-1.00;99.90
36372;DHT22;22398;51.346;12.372;2023-03-12T02:25:57;-1.00;99.90
36372;DHT22;22398;51.346;12.372;2023-03-12T02:31:02;-1.00;99.90
36372;DHT22;22398;51.346;12.372;2023-03-12T02:36:08;-1.10;99.90
36372;DHT22;22398;51.346;12.372;2023-03-12T02:41:17;-1.00;99.90
36372;DHT22;22398;51.346;12.372;2023-03-12T02:46:21;-1.00;99.90
36372;DHT22;22398;51.346;12.372;2023-03-12T02:51:25;-1.10;99.90
36372;DHT22;22398;51.346;12.372;2023-03-12T02:56:29;-1.10;99.90
36372;DHT22;22398;51.346;12.372;2023-03-12T03:01:33;-1.00;99.90
36372;DHT22;22398;51.346;12.372;2023-03-12T03:06:40;-1.00;99.90
36372;DHT22;22398;51.346;12.372;2023-03-12T03:11:45;-1.00;99.90
36372;DHT22;22398;51.346;12.372;2023-03-12T03:16:49;-1.00;99.90
36372;DHT22;22398;51.346;12.372;2023-03-12T03:21:56;-1.00;99.90
36372;DHT22;22398;51.346;12.372;2023-03-12T03:27:01;-0.90;99.90
36372;DHT22;22398;51.346;12.372;2023-03-12T03:32:05;-0.90;99.90
36372;DHT22;22398;51.346;12.372;2023-03-12T03:37:08;-0.90;99.90
36372;DHT22;22398;51.346;12.372;2023-03-12T03:42:14;-1.00;99.90
36372;DHT22;22398;51.346;12.372;2023-03-12T03:47:17;-1.00;99.90
36372;DHT22;22398;51.346;12.372;2023-03-12T03:52:21;-1.00;99.90
36372;DHT22;22398;51.346;12.372;2023-03-12T03:57:26;-1.20;99.90
36372;DHT22;22398;51.346;12.372;2023-03-12T04:02:30;-1.10;99.90
36372;DHT22;22398;51.346;12.372;2023-03-12T04:07:34;-1.10;99.90
36372;DHT22;22398;51.346;12.372;2023-03-12T04:12:39;-1.10;99.90
36372;DHT22;22398;51.346;12.372;2023-03-12T04:17:43;-1.00;99.90
36372;DHT22;22398;51.346;12.372;2023-03-12T04:22:46;-1.10;99.90
36372;DHT22;22398;51.346;12.372;2023-03-12T04:27:52;-1.10;99.90
36372;DHT22;22398;51.346;12.372;2023-03-12T04:32:55;-1.10;99.90
36372;DHT22;22398;51.346;12.372;2023-03-12T04:38:00;-1.10;99.90
36372;DHT22;22398;51.346;12.372;2023-03-12T04:43:06;-1.20;99.90
36372;DHT22;22398;51.346;12.372;2023-03-12T04:48:11;-1.30;99.90
36372;DHT22;22398;51.346;12.372;2023-03-12T04:53:15;-1.30;99.90
36372;DHT22;22398;51.346;12.372;2023-03-12T04:58:21;-1.30;99.90
36372;DHT22;22398;51.346;12.372;2023-03-12T05:03:25;-1.30;99.90
36372;DHT22;22398;51.346;12.372;2023-03-12T05:08:30;-1.30;99.90
36372;DHT22;22398;51.346;12.372;2023-03-12T05:13:35;-1.30;99.90
36372;DHT22;22398;51.346;12.372;2023-03-12T05:18:39;-1.40;99.90
36372;DHT22;22398;51.346;12.372;2023-03-12T05:23:44;-1.40;99.90
36372;DHT22;22398;51.346;12.372;2023-03-12T05:28:50;-1.40;99.90
36372;DHT22;22398;51.346;12.372;2023-03-12T05:33:57;-1.30;99.90
36372;DHT22;22398;51.346;12.372;2023-03-12T05:39:01;-1.30;99.90
36372;DHT22;22398;51.346;12.372;2023-03-12T05:44:10;-1.10;99.90
36372;DHT22;22398;51.346;12.372;2023-03-12T05:49:16;-1.10;99.90
36372;DHT22;22398;51.346;12.372;2023-03-12T05:54:20;-1.00;99.90
36372;DHT22;22398;51.346;12.372;2023-03-12T05:59:27;-1.00;99.90
36372;DHT22;22398;51.346;12.372;2023-03-12T06:04:31;-0.80;99.90
36372;DHT22;22398;51.346;12.372;2023-03-12T06:09:35;-0.70;99.90
36372;DHT22;22398;51.346;12.372;2023-03-12T06:14:40;-0.60;99.90
36372;DHT22;22398;51.346;12.372;2023-03-12T06:19:44;-0.40;99.90
36372;DHT22;22398;51.346;12.372;2023-03-12T06:24:48;-0.20;99.90
36372;DHT22;22398;51.346;12.372;2023-03-12T06:29:54;-0.10;99.90
36372;DHT22;22398;51.346;12.372;2023-03-12T06:34:57;0.10;99.90
36372;DHT22;22398;51.346;12.372;2023-03-12T06:40:02;0.60;99.90
36372;DHT22;22398;51.346;12.372;2023-03-12T06:45:10;1.00;99.90
36372;DHT22;22398;51.346;12.372;2023-03-12T06:50:13;1.40;99.90
36372;DHT22;22398;51.346;12.372;2023-03-12T06:55:17;1.50;99.90
36372;DHT22;22398;51.346;12.372;2023-03-12T07:00:22;1.60;99.90
36372;DHT22;22398;51.346;12.372;2023-03-12T07:05:26;1.70;99.90
36372;DHT22;22398;51.346;12.372;2023-03-12T07:10:31;1.90;99.90
36372;DHT22;22398;51.346;12.372;2023-03-12T07:15:35;2.20;99.90
36372;DHT22;22398;51.346;12.372;2023-03-12T07:20:40;2.60;99.90
36372;DHT22;22398;51.346;12.372;2023-03-12T07:25:44;2.80;99.90
36372;DHT22;22398;51.346;12.372;2023-03-12T07:30:50;3.00;99.90
36372;DHT22;22398;51.346;12.372;2023-03-12T07:35:53;3.30;99.90
36372;DHT22;22398;51.346;12.372;2023-03-12T07:40:58;3.60;99.90
36372;DHT22;22398;51.346;12.372;2023-03-12T07:46:03;3.80;99.90
36372;DHT22;22398;51.346;12.372;2023-03-12T07:51:07;4.10;99.90
36372;DHT22;22398;51.346;12.372;2023-03-12T07:56:10;4.30;99.90
36372;DHT22;22398;51.346;12.372;2023-03-12T08:01:15;4.60;99.90
36372;DHT22;22398;51.346;12.372;2023-03-12T08:06:19;4.90;99.90
36372;DHT22;22398;51.346;12.372;2023-03-12T08:11:22;5.00;99.80
36372;DHT22;22398;51.346;12.372;2023-03-12T08:16:27;5.00;99.20
36372;DHT22;22398;51.346;12.372;2023-03-12T08:21:30;5.20;98.90
36372;DHT22;22398;51.346;12.372;2023-03-12T08:26:33;5.60;98.50
36372;DHT22;22398;51.346;12.372;2023-03-12T08:31:38;5.60;97.80
36372;DHT22;22398;51.346;12.372;2023-03-12T08:37:02;5.80;97.40
36372;DHT22;22398;51.346;12.372;2023-03-12T08:42:06;6.10;97.10
36372;DHT22;22398;51.346;12.372;2023-03-12T08:47:11;6.30;96.50
36372;DHT22;22398;51.346;12.372;2023-03-12T08:52:14;6.40;95.90
36372;DHT22;22398;51.346;12.372;2023-03-12T08:57:18;6.50;95.40
36372;DHT22;22398;51.346;12.372;2023-03-12T09:02:23;6.80;95.20
36372;DHT22;22398;51.346;12.372;2023-03-12T09:07:27;7.10;94.60
36372;DHT22;22398;51.346;12.372;2023-03-12T09:12:30;7.40;93.70
36372;DHT22;22398;51.346;12.372;2023-03-12T09:17:36;7.30;93.30
36372;DHT22;22398;51.346;12.372;2023-03-12T09:22:40;7.70;92.80
36372;DHT22;22398;51.346;12.372;2023-03-12T09:27:45;8.00;92.30
36372;DHT22;22398;51.346;12.372;2023-03-12T09:32:50;8.10;91.70
36372;DHT22;22398;51.346;12.372;2023-03-12T09:37:54;8.10;91.20
36372;DHT22;22398;51.346;12.372;2023-03-12T09:43:00;7.90;90.60
36372;DHT22;22398;51.346;12.372;2023-03-12T09:48:13;8.30;90.50
36372;DHT22;22398;51.346;12.372;2023-03-12T09:53:24;8.40;89.80
36372;DHT22;22398;51.346;12.372;2023-03-12T09:58:31;8.70;89.00
36372;DHT22;22398;51.346;12.372;2023-03-12T10:03:51;8.80;87.80
36372;DHT22;22398;51.346;12.372;2023-03-12T10:09:05;9.00;86.50
36372;DHT22;22398;51.346;12.372;2023-03-12T10:14:21;9.10;84.90
36372;DHT22;22398;51.346;12.372;2023-03-12T10:19:45;9.10;84.20
36372;DHT22;22398;51.346;12.372;2023-03-12T10:25:00;9.00;83.00
36372;DHT22;22398;51.346;12.372;2023-03-12T10:30:16;9.00;82.20
36372;DHT22;22398;51.346;12.372;2023-03-12T10:35:24;8.70;81.20
36372;DHT22;22398;51.346;12.372;2023-03-12T10:40:30;8.70;81.30
36372;DHT22;22398;51.346;12.372;2023-03-12T10:45:39;8.80;81.00
36372;DHT22;22398;51.346;12.372;2023-03-12T10:51:00;9.30;80.50
36372;DHT22;22398;51.346;12.372;2023-03-12T10:56:05;9.50;79.60
36372;DHT22;22398;51.346;12.372;2023-03-12T11:01:18;9.30;79.40
36372;DHT22;22398;51.346;12.372;2023-03-12T11:06:25;9.50;78.90
36372;DHT22;22398;51.346;12.372;2023-03-12T11:11:31;9.40;77.80
36372;DHT22;22398;51.346;12.372;2023-03-12T11:16:35;9.20;77.10
36372;DHT22;22398;51.346;12.372;2023-03-12T11:21:53;9.20;76.90
36372;DHT22;22398;51.346;12.372;2023-03-12T11:27:02;9.20;76.60
36372;DHT22;22398;51.346;12.372;2023-03-12T11:32:14;9.10;76.30
36372;DHT22;22398;51.346;12.372;2023-03-12T11:37:28;9.10;76.00
36372;DHT22;22398;51.346;12.372;2023-03-12T11:42:44;9.40;76.30
36372;DHT22;22398;51.346;12.372;2023-03-12T11:48:03;9.70;75.50
36372;DHT22;22398;51.346;12.372;2023-03-12T11:53:34;10.10;75.30
36372;DHT22;22398;51.346;12.372;2023-03-12T11:59:06;10.30;74.90
36372;DHT22;22398;51.346;12.372;2023-03-12T12:04:32;10.30;74.20
36372;DHT22;22398;51.346;12.372;2023-03-12T12:09:44;10.50;74.00
36372;DHT22;22398;51.346;12.372;2023-03-12T12:14:59;10.60;73.40
36372;DHT22;22398;51.346;12.372;2023-03-12T12:20:20;10.40;72.50
36372;DHT22;22398;51.346;12.372;2023-03-12T12:25:38;10.20;72.20
36372;DHT22;22398;51.346;12.372;2023-03-12T12:31:02;10.30;72.20
36372;DHT22;22398;51.346;12.372;2023-03-12T12:36:08;10.10;71.20
36372;DHT22;22398;51.346;12.372;2023-03-12T12:41:16;9.90;71.10
36372;DHT22;22398;51.346;12.372;2023-03-12T12:46:21;9.80;71.30
36372;DHT22;22398;51.346;12.372;2023-03-12T12:51:28;9.80;71.20
36372;DHT22;22398;51.346;12.372;2023-03-12T12:56:39;9.70;71.40
36372;DHT22;22398;51.346;12.372;2023-03-12T13:01:45;9.60;71.60
36372;DHT22;22398;51.346;12.372;2023-03-12T13:06:57;9.40;71.00
36372;DHT22;22398;51.346;12.372;2023-03-12T13:12:19;9.20;71.00
36372;DHT22;22398;51.346;12.372;2023-03-12T13:17:33;9.10;70.90
36372;DHT22;22398;51.346;12.372;2023-03-12T13:23:02;9.20;70.80
36372;DHT22;22398;51.346;12.372;2023-03-12T13:28:31;9.10;71.00
36372;DHT22;22398;51.346;12.372;2023-03-12T13:33:39;9.20;71.20
36372;DHT22;22398;51.346;12.372;2023-03-12T13:38:54;9.10;72.00
36372;DHT22;22398;51.346;12.372;2023-03-12T13:43:59;8.50;73.20
36372;DHT22;22398;51.346;12.372;2023-03-12T13:49:09;8.10;74.70
36372;DHT22;22398;51.346;12.372;2023-03-12T13:54:16;7.80;76.20
36372;DHT22;22398;51.346;12.372;2023-03-12T13:59:23;7.80;77.30
36372;DHT22;22398;51.346;12.372;2023-03-12T14:04:38;8.00;78.30
36372;DHT22;22398;51.346;12.372;2023-03-12T14:09:46;8.10;78.40
36372;DHT22;22398;51.346;12.372;2023-03-12T14:15:03;8.10;78.70
36372;DHT22;22398;51.346;12.372;2023-03-12T14:20:13;8.00;79.00
36372;DHT22;22398;51.346;12.372;2023-03-12T14:25:24;8.10;79.30
36372;DHT22;22398;51.346;12.372;2023-03-12T14:30:43;8.10;79.30
36372;DHT22;22398;51.346;12.372;2023-03-12T14:35:52;8.00;79.80
36372;DHT22;22398;51.346;12.372;2023-03-12T14:41:02;7.90;80.50
36372;DHT22;22398;51.346;12.372;2023-03-12T14:46:15;7.70;81.70
36372;DHT22;22398;51.346;12.372;2023-03-12T14:51:22;7.70;82.70
36372;DHT22;22398;51.346;12.372;2023-03-12T14:56:27;7.70;83.80
36372;DHT22;22398;51.346;12.372;2023-03-12T15:01:33;7.80;84.20
36372;DHT22;22398;51.346;12.372;2023-03-12T15:06:43;7.80;84.50
36372;DHT22;22398;51.346;12.372;2023-03-12T15:11:52;7.70;84.90
36372;DHT22;22398;51.346;12.372;2023-03-12T15:16:58;7.60;85.00
36372;DHT22;22398;51.346;12.372;2023-03-12T15:22:03;7.50;85.60
36372;DHT22;22398;51.346;12.372;2023-03-12T15:27:21;7.60;86.00
36372;DHT22;22398;51.346;12.372;2023-03-12T15:32:27;7.70;86.10
36372;DHT22;22398;51.346;12.372;2023-03-12T15:37:34;7.80;86.40
36372;DHT22;22398;51.346;12.372;2023-03-12T15:42:40;7.80;86.80
36372;DHT22;22398;51.346;12.372;2023-03-12T15:47:47;7.80;86.90
36372;DHT22;22398;51.346;12.372;2023-03-12T15:52:59;7.70;87.20
36372;DHT22;22398;51.346;12.372;2023-03-12T15:58:21;7.70;87.60
36372;DHT22;22398;51.346;12.372;2023-03-12T16:03:27;7.60;88.00
36372;DHT22;22398;51.346;12.372;2023-03-12T16:08:35;7.60;88.70
36372;DHT22;22398;51.346;12.372;2023-03-12T16:13:41;7.60;89.30
36372;DHT22;22398;51.346;12.372;2023-03-12T16:18:46;7.50;89.70
36372;DHT22;22398;51.346;12.372;2023-03-12T16:23:49;7.50;90.20
36372;DHT22;22398;51.346;12.372;2023-03-12T16:28:52;7.50;90.50
36372;DHT22;22398;51.346;12.372;2023-03-12T16:33:57;7.50;90.80
36372;DHT22;22398;51.346;12.372;2023-03-12T16:39:01;7.50;91.10
36372;DHT22;22398;51.346;12.372;2023-03-12T16:44:06;7.40;91.40
36372;DHT22;22398;51.346;12.372;2023-03-12T16:49:13;7.40;91.70
36372;DHT22;22398;51.346;12.372;2023-03-12T16:54:17;7.40;92.10
36372;DHT22;22398;51.346;12.372;2023-03-12T16:59:23;7.40;92.40
36372;DHT22;22398;51.346;12.372;2023-03-12T17:04:28;7.40;92.70
36372;DHT22;22398;51.346;12.372;2023-03-12T17:09:32;7.30;93.00
36372;DHT22;22398;51.346;12.372;2023-03-12T17:14:36;7.30;93.50
36372;DHT22;22398;51.346;12.372;2023-03-12T17:19:40;7.40;93.90
36372;DHT22;22398;51.346;12.372;2023-03-12T17:24:43;7.40;94.20
36372;DHT22;22398;51.346;12.372;2023-03-12T17:29:48;7.40;94.50
36372;DHT22;22398;51.346;12.372;2023-03-12T17:34:55;7.40;94.80
36372;DHT22;22398;51.346;12.372;2023-03-12T17:39:58;7.40;95.10
36372;DHT22;22398;51.346;12.372;2023-03-12T17:45:04;7.40;95.40
36372;DHT22;22398;51.346;12.372;2023-03-12T17:50:11;7.40;95.70
36372;DHT22;22398;51.346;12.372;2023-03-12T17:55:15;7.30;95.90
36372;DHT22;22398;51.346;12.372;2023-03-12T18:00:19;7.30;96.20
36372;DHT22;22398;51.346;12.372;2023-03-12T18:05:25;7.20;96.50
36372;DHT22;22398;51.346;12.372;2023-03-12T18:10:29;7.20;96.90
36372;DHT22;22398;51.346;12.372;2023-03-12T18:15:33;7.30;97.20
36372;DHT22;22398;51.346;12.372;2023-03-12T18:20:38;7.40;97.50
36372;DHT22;22398;51.346;12.372;2023-03-12T18:25:42;7.40;97.70
36372;DHT22;22398;51.346;12.372;2023-03-12T18:30:46;7.50;97.90
36372;DHT22;22398;51.346;12.372;2023-03-12T18:35:51;7.50;98.10
36372;DHT22;22398;51.346;12.372;2023-03-12T18:41:07;7.50;98.30
36372;DHT22;22398;51.346;12.372;2023-03-12T18:46:13;7.50;98.50
36372;DHT22;22398;51.346;12.372;2023-03-12T18:51:18;7.50;98.70
36372;DHT22;22398;51.346;12.372;2023-03-12T18:56:21;7.50;98.90
36372;DHT22;22398;51.346;12.372;2023-03-12T19:01:25;7.50;99.20
36372;DHT22;22398;51.346;12.372;2023-03-12T19:06:29;7.60;99.40
36372;DHT22;22398;51.346;12.372;2023-03-12T19:11:50;7.60;99.60
36372;DHT22;22398;51.346;12.372;2023-03-12T19:16:54;7.50;99.90
36372;DHT22;22398;51.346;12.372;2023-03-12T19:21:59;7.50;99.90
36372;DHT22;22398;51.346;12.372;2023-03-12T19:27:02;7.40;99.90
36372;DHT22;22398;51.346;12.372;2023-03-12T19:32:06;7.50;99.90
36372;DHT22;22398;51.346;12.372;2023-03-12T19:37:11;7.50;99.90
36372;DHT22;22398;51.346;12.372;2023-03-12T19:42:15;7.60;99.90
36372;DHT22;22398;51.346;12.372;2023-03-12T19:47:18;7.60;99.90
36372;DHT22;22398;51.346;12.372;2023-03-12T19:52:24;7.60;99.90
36372;DHT22;22398;51.346;12.372;2023-03-12T19:57:28;7.50;99.90
36372;DHT22;22398;51.346;12.372;2023-03-12T20:02:31;7.50;99.90
36372;DHT22;22398;51.346;12.372;2023-03-12T20:07:36;7.60;99.90
36372;DHT22;22398;51.346;12.372;2023-03-12T20:12:40;7.60;99.90
36372;DHT22;22398;51.346;12.372;2023-03-12T20:17:43;7.70;99.90
36372;DHT22;22398;51.346;12.372;2023-03-12T20:22:48;7.60;99.90
36372;DHT22;22398;51.346;12.372;2023-03-12T20:27:51;7.60;99.90
36372;DHT22;22398;51.346;12.372;2023-03-12T20:32:55;7.60;99.90
36372;DHT22;22398;51.346;12.372;2023-03-12T20:38:00;7.60;99.90
36372;DHT22;22398;51.346;12.372;2023-03-12T20:43:03;7.60;99.90
36372;DHT22;22398;51.346;12.372;2023-03-12T20:48:07;7.70;99.90
36372;DHT22;22398;51.346;12.372;2023-03-12T20:53:12;7.70;99.90
36372;DHT22;22398;51.346;12.372;2023-03-12T20:58:15;7.70;99.90
36372;DHT22;22398;51.346;12.372;2023-03-12T21:03:19;7.80;99.90
36372;DHT22;22398;51.346;12.372;2023-03-12T21:08:24;7.80;99.90
36372;DHT22;22398;51.346;12.372;2023-03-12T21:13:28;7.80;99.90
36372;DHT22;22398;51.346;12.372;2023-03-12T21:18:31;7.80;99.90
36372;DHT22;22398;51.346;12.372;2023-03-12T21:23:36;7.80;99.90
36372;DHT22;22398;51.346;12.372;2023-03-12T21:28:40;7.80;99.90
36372;DHT22;22398;51.346;12.372;2023-03-12T21:33:43;7.80;99.90
36372;DHT22;22398;51.346;12.372;2023-03-12T21:38:51;7.70;99.90
36372;DHT22;22398;51.346;12.372;2023-03-12T21:43:55;7.70;99.90
36372;DHT22;22398;51.346;12.372;2023-03-12T21:48:58;7.70;99.90
36372;DHT22;22398;51.346;12.372;2023-03-12T21:54:03;7.60;99.90
36372;DHT22;22398;51.346;12.372;2023-03-12T21:59:07;7.60;99.90
36372;DHT22;22398;51.346;12.372;2023-03-12T22:04:11;7.50;99.90
36372;DHT22;22398;51.346;12.372;2023-03-12T22:09:17;7.40;99.90
36372;DHT22;22398;51.346;12.372;2023-03-12T22:14:21;7.40;99.90
36372;DHT22;22398;51.346;12.372;2023-03-12T22:19:25;7.50;99.90
36372;DHT22;22398;51.346;12.372;2023-03-12T22:24:29;7.50;99.90
36372;DHT22;22398;51.346;12.372;2023-03-12T22:29:33;7.50;99.90
36372;DHT22;22398;51.346;12.372;2023-03-12T22:34:36;7.60;99.90
36372;DHT22;22398;51.346;12.372;2023-03-12T22:39:43;7.60;99.90
36372;DHT22;22398;51.346;12.372;2023-03-12T22:44:46;7.60;99.90
36372;DHT22;22398;51.346;12.372;2023-03-12T22:49:50;7.70;99.90
36372;DHT22;22398;51.346;12.372;2023-03-12T22:54:55;7.70;99.90
36372;DHT22;22398;51.346;12.372;2023-03-12T22:59:58;7.70;99.90
36372;DHT22;22398;51.346;12.372;2023-03-12T23:05:02;7.70;99.90
36372;DHT22;22398;51.346;12.372;2023-03-12T23:10:08;7.70;99.90
36372;DHT22;22398;51.346;12.372;2023-03-12T23:15:11;7.80;99.90
36372;DHT22;22398;51.346;12.372;2023-03-12T23:20:15;7.80;99.90
36372;DHT22;22398;51.346;12.372;2023-03-12T23:25:19;7.90;99.90
36372;DHT22;22398;51.346;12.372;2023-03-12T23:30:23;7.90;99.90
36372;DHT22;22398;51.346;12.372;2023-03-12T23:35:26;8.00;99.90
36372;DHT22;22398;51.346;12.372;2023-03-12T23:40:31;8.10;99.90
36372;DHT22;22398;51.346;12.372;2023-03-12T23:45:34;8.10;99.90
36372;DHT22;22398;51.346;12.372;2023-03-12T23:50:38;8.20;99.90
36372;DHT22;22398;51.346;12.372;2023-03-12T23:55:52;8.20;99.90
